Broken Bow, NE

11:15 AM CST on February 12, 2016 (GMT -0600)
Broken Bow Municipal | | Change Station
CLOSE
Current Station
Airport
Location: Broken Bow,
Elevation: 2546 ft
Nearby Weather Stations
Active Advisory: Special Statement

Elev 2546 ft 41.44 °N, 99.64 °W | Updated 22 minutes ago

Overcast
Overcast
31 °F
Feels Like 22 °F
N
12
Wind Variable Wind from North

Today
High -- | Low -- °F
--% Chance of Precip.
Yesterday
High -- | Low -- °F
Precip. -- in
Pressure 30.50 in
Visibility 10.0 miles
Clouds Overcast 800 ft
Windchill 22 °F
Dew Point 27 °F
Humidity 85%
Rainfall 0.00 in
Snow Depth Not available.
7:38 AM 6:08 PM
Waxing Crescent, 22% visible
METAR KBBW 121653Z AUTO 36010KT 10SM OVC008 M01/M03 A3042 RMK AO2 SLP327 T10061028
Pressure 30.50 in
Visibility 10.0 miles
Clouds Overcast 800 ft
Windchill 22 °F
Dew Point 27 °F
Humidity 85%
Rainfall 0.00 in
Snow Depth Not available.
7:38 AM 6:08 PM
Waxing Crescent, 22% visible
METAR KBBW 121653Z AUTO 36010KT 10SM OVC008 M01/M03 A3042 RMK AO2 SLP327 T10061028

10-Day Weather Forecast

Almanac

Astronomy

Feb. 12, 2016 Rise Set
Actual Time
Civil Twilight
Nautical Twilight
Astronomical Twilight
Moon
Length of Visible Light
Length of Day
Tomorrow will be .
, % of the Moon is Illuminated

Today's Extremes

State Highs State Lows

Community

WunderPhotos

Upload Photos

1,892,353 photos uploaded!

WunderBlog® & News

Nearby

Air Quality

  Air Quality AQ Index Pollutant
Not available.

Snow Depth

Station Depth Elevation

Earthquake Activity

City Distance Mag. Time & Date
Minimum magnitude displayed is 2.5.

Coastal Water Temperatures

Place Temperature

Stations

Nearby Weather Stations

Station Location Temp. Windchill Dew Point Humidity Wind Precip. Elev Updated Type
                   

Watches & Warnings

Special Statement
Issued: 2:08 AM MST Feb. 12, 2016 – National Weather Service

An Arctic cold front will stall across the Nebraska Panhandle
this evening... then move back to the east tonight and Saturday.
As this front moves east as a warm front... patchy freezing
drizzle will be possible tonight into Saturday morning... .mainly
west of Highway 183. For areas to the east... a chance for light
snow is expected.

Motorists planning travel tonight into Saturday morning should be
prepared for possible slick spots on roadways.


Roberg


308 am CST Fri Feb 12 2016 /208 am MST Fri Feb 12 2016/

An Arctic cold front will stall across the Nebraska Panhandle
this evening... then move back to the east tonight and Saturday.
As this front moves east as a warm front... patchy freezing
drizzle will be possible tonight into Saturday morning... .mainly
west of Highway 183. For areas to the east... a chance for light
snow is expected.

Motorists planning travel tonight into Saturday morning should be
prepared for possible slick spots on roadways.


Roberg